ワシントン/ダレス の空港の天気 - METARとTAF

ワシントン・ダレス国際空港 ( KIAD / IAD ) - アメリカ バージニア州ダレス
飛行場実況気象(Metar)
観測時間08/11 02:52 EDT (08/11 06:52 UTC)
風向・風速静穏 0m/s
視程10km以上
天気現象
少しの雲 雲底高度 3660m
少しの雲 雲底高度 7620m
気温23.3℃
湿度91%
気圧1014.7hPa
METARKIAD 110652Z 00000KT 10SM FEW120 FEW250 23/22 A2998 RMK AO2 SLP147 T02330217 $
過去の天気等 Google飛行場航空写真 Wunderground天気予報

過去48時間のMETAR

飛行場予報(TAF)
発表時間: 8/11 01:33 EDT (8/11 05:33 UTC)
予報対象時間: 11日2時 EDT ~ 12日8時 EDT
風向・風速南 2m/s
視程10km以上
天気現象もや
全天の4割程度の雲 雲底高度 30m
全天の8割程度の雲 雲底高度 7620m
11日9時 EDT から
風向・風速南 2m/s
視程10km以上
少しの雲 雲底高度 240m
全天の4割程度の雲 雲底高度 7620m
11日13時 EDT から
風向・風速南 4m/s
視程10km以上
全天の8割程度の雲 雲底高度 7620m
11日17時 EDT から
風向・風速南 4m/s
視程10km以上
全天の4割程度の雲 雲底高度 1520m
全天の8割程度の雲 雲底高度 7620m
KIAD 110533Z 1106/1212 17004KT 6SM BR SCT001 BKN250
FM111300 18004KT P6SM FEW008 SCT250
FM111700 18007KT P6SM BKN250
FM112100 18007KT P6SM SCT050 BKN250